Time;durP1;ratioP1;P1;durP2;ratioP2;P2;SDS_P1;SDS_P2;PMS_P1;PMS_P2;Temp;Humidity;BMP_temperature;BMP_pressure;BME280_temperature;BME280_humidity;BME280_pressure;Samples;Min_cycle;Max_cycle;Signal;HPM_P1;HPM_P2
2023/09/09 00:02:19;;;;;;;0.00;0.00;;;;;;;21.34;100.00;101610.97;5091233;28;20020;-47
2023/09/09 00:04:44;;;;;;;0.00;0.00;;;;;;;21.30;100.00;101615.28;5104774;28;20110;-48
2023/09/09 00:07:11;;;;;;;0.00;0.00;;;;;;;21.29;100.00;101619.06;5112349;28;20012;-44
2023/09/09 00:09:37;;;;;;;0.00;0.00;;;;;;;21.26;100.00;101614.06;5112749;28;20126;-47
2023/09/09 00:12:03;;;;;;;0.00;0.00;;;;;;;21.21;100.00;101614.75;5112276;28;20023;-47
2023/09/09 00:14:29;;;;;;;0.00;0.00;;;;;;;21.17;100.00;101610.84;5108050;28;20465;-47
2023/09/09 00:16:54;;;;;;;0.00;0.00;;;;;;;21.11;100.00;101616.41;5091617;28;20023;-46
2023/09/09 00:19:21;;;;;;;0.00;0.00;;;;;;;21.03;100.00;101620.28;5095402;28;20500;-45
2023/09/09 00:21:47;;;;;;;0.00;0.00;;;;;;;20.96;100.00;101622.31;5113803;28;20028;-47
2023/09/09 00:24:12;;;;;;;0.00;0.00;;;;;;;20.91;100.00;101625.75;5113351;28;20496;-47
2023/09/09 00:26:38;;;;;;;0.00;0.00;;;;;;;20.89;100.00;101629.78;5111959;28;20031;-47
2023/09/09 00:29:03;;;;;;;0.00;0.00;;;;;;;20.86;100.00;101619.28;5103524;28;20043;-46
2023/09/09 00:31:29;;;;;;;0.00;0.00;;;;;;;20.84;100.00;101619.50;5092316;28;20069;-47
2023/09/09 00:33:54;;;;;;;0.00;0.00;;;;;;;20.81;100.00;101609.88;5097303;28;20537;-45
2023/09/09 00:36:19;;;;;;;0.00;0.00;;;;;;;20.79;100.00;101624.84;5110931;28;20054;-48
2023/09/09 00:38:45;;;;;;;0.00;0.00;;;;;;;20.75;100.00;101618.19;5111868;28;20024;-47
2023/09/09 00:41:16;;;;;;;0.00;0.00;;;;;;;20.74;100.00;101613.75;5111809;28;20394;-47
2023/09/09 00:43:41;;;;;;;0.00;0.00;;;;;;;20.72;100.00;101611.28;5093530;28;20066;-47
2023/09/09 00:46:07;;;;;;;0.00;0.00;;;;;;;20.70;100.00;101605.19;5110308;28;20031;-46
2023/09/09 00:48:33;;;;;;;0.00;0.00;;;;;;;20.66;100.00;101612.16;5111947;28;20034;-46
2023/09/09 00:50:58;;;;;;;0.00;0.00;;;;;;;20.63;100.00;101609.91;5112239;28;20023;-48
2023/09/09 00:53:24;;;;;;;0.00;0.00;;;;;;;20.61;100.00;101601.09;5112289;28;20027;-47
2023/09/09 00:55:51;;;;;;;0.00;0.00;;;;;;;20.57;100.00;101603.47;5109789;28;20379;-48
2023/09/09 00:58:16;;;;;;;0.00;0.00;;;;;;;20.55;100.00;101610.22;5110456;28;20024;-45
2023/09/09 01:00:41;;;;;;;0.00;0.00;;;;;;;20.52;100.00;101607.91;5089847;28;20044;-47
2023/09/09 01:03:09;;;;;;;0.00;0.00;;;;;;;20.48;100.00;101609.44;5091041;28;20063;-46
2023/09/09 01:05:35;;;;;;;0.00;0.00;;;;;;;20.44;100.00;101610.97;5102300;28;20027;-45
2023/09/09 01:08:01;;;;;;;0.00;0.00;;;;;;;20.38;100.00;101613.56;5110220;28;20016;-47
2023/09/09 01:10:26;;;;;;;0.00;0.00;;;;;;;20.32;100.00;101608.16;5105411;28;20381;-46
2023/09/09 01:12:52;;;;;;;0.00;0.00;;;;;;;20.27;100.00;101603.34;5100912;28;20016;-48
2023/09/09 01:15:17;;;;;;;0.00;0.00;;;;;;;20.27;100.00;101608.00;5090313;28;20458;-47
2023/09/09 01:17:43;;;;;;;0.00;0.00;;;;;;;20.24;100.00;101609.28;5089756;28;20047;-47
2023/09/09 01:20:15;;;;;;;0.00;0.00;;;;;;;20.24;100.00;101606.53;5094664;28;20023;-46
2023/09/09 01:22:43;;;;;;;0.00;0.00;;;;;;;20.21;100.00;101601.53;5109917;28;20036;-46
2023/09/09 01:25:10;;;;;;;0.00;0.00;;;;;;;20.24;100.00;101603.00;5107563;28;20386;-46
2023/09/09 01:27:35;;;;;;;0.00;0.00;;;;;;;20.25;100.00;101597.31;5111280;28;20046;-49
2023/09/09 01:30:00;;;;;;;0.00;0.00;;;;;;;20.25;100.00;101602.78;5095748;28;20081;-49
2023/09/09 01:32:26;;;;;;;0.00;0.00;;;;;;;20.25;100.00;101594.56;5109498;28;20023;-51
2023/09/09 01:34:52;;;;;;;0.00;0.00;;;;;;;20.26;100.00;101603.59;5101070;28;20055;-49
2023/09/09 01:37:17;;;;;;;0.00;0.00;;;;;;;20.23;100.00;101599.41;5095928;28;20435;-46
2023/09/09 01:39:43;;;;;;;0.00;0.00;;;;;;;20.21;100.00;101609.75;5107937;28;20034;-47
2023/09/09 01:42:09;;;;;;;0.00;0.00;;;;;;;20.18;100.00;101599.28;5094799;28;20036;-47
2023/09/09 01:44:34;;;;;;;0.00;0.00;;;;;;;20.13;100.00;101599.94;5115175;28;20262;-44
2023/09/09 01:46:59;;;;;;;0.00;0.00;;;;;;;20.10;100.00;101596.84;5106157;28;20050;-48
2023/09/09 01:49:25;;;;;;;0.00;0.00;;;;;;;20.08;100.00;101602.53;5104956;28;20032;-48
2023/09/09 01:51:50;;;;;;;0.00;0.00;;;;;;;20.05;100.00;101596.69;5114495;28;20461;-45
2023/09/09 01:54:15;;;;;;;0.00;0.00;;;;;;;20.03;100.00;101593.34;5114053;28;20055;-47
2023/09/09 01:56:41;;;;;;;0.00;0.00;;;;;;;20.02;100.00;101597.13;5093827;28;20068;-46
2023/09/09 01:59:06;;;;;;;0.00;0.00;;;;;;;20.01;100.00;101603.66;5102821;28;20040;-47
2023/09/09 02:01:31;;;;;;;0.00;0.00;;;;;;;20.01;100.00;101600.91;5115290;28;20051;-47
2023/09/09 02:03:57;;;;;;;0.00;0.00;;;;;;;20.00;100.00;101599.25;5100388;28;20032;-48
2023/09/09 02:06:22;;;;;;;0.00;0.00;;;;;;;20.00;100.00;101599.25;5101732;28;20042;-45
2023/09/09 02:08:47;;;;;;;0.00;0.00;;;;;;;19.99;100.00;101592.13;5100035;28;20114;-48
2023/09/09 02:11:13;;;;;;;0.00;0.00;;;;;;;19.95;100.00;101589.81;5113502;28;20027;-46
2023/09/09 02:13:38;;;;;;;0.00;0.00;;;;;;;19.95;100.00;101603.50;5103051;28;20093;-44
2023/09/09 02:16:05;;;;;;;0.00;0.00;;;;;;;19.93;100.00;101599.31;5094650;28;20024;-46
2023/09/09 02:18:30;;;;;;;0.00;0.00;;;;;;;19.88;100.00;101601.88;5095082;28;20028;-49
2023/09/09 02:20:57;;;;;;;0.00;0.00;;;;;;;19.83;100.00;101599.84;5114009;28;20038;-46
2023/09/09 02:23:22;;;;;;;0.00;0.00;;;;;;;19.81;100.00;101601.13;5113538;28;20023;-47
2023/09/09 02:25:47;;;;;;;0.00;0.00;;;;;;;19.77;100.00;101597.16;5114778;28;20034;-50
2023/09/09 02:28:13;;;;;;;0.00;0.00;;;;;;;19.73;100.00;101600.34;5108062;28;20024;-46
2023/09/09 02:30:38;;;;;;;0.00;0.00;;;;;;;19.68;100.00;101597.47;5108652;28;20586;-50
2023/09/09 02:33:04;;;;;;;0.00;0.00;;;;;;;19.67;100.00;101594.97;5112736;28;20084;-46
2023/09/09 02:35:30;;;;;;;0.00;0.00;;;;;;;19.62;100.00;101598.34;5097373;28;20111;-47
2023/09/09 02:37:55;;;;;;;0.00;0.00;;;;;;;19.62;100.00;101600.22;5098429;28;20107;-47
2023/09/09 02:40:21;;;;;;;0.00;0.00;;;;;;;19.58;100.00;101596.25;5109924;28;20047;-47
2023/09/09 02:42:46;;;;;;;0.00;0.00;;;;;;;19.58;100.00;101602.56;5113487;28;20066;-45
2023/09/09 02:45:11;;;;;;;0.00;0.00;;;;;;;19.56;100.00;101593.75;5111625;28;20450;-47
2023/09/09 02:47:37;;;;;;;0.00;0.00;;;;;;;19.55;100.00;101588.53;5113438;28;20034;-47
2023/09/09 02:50:04;;;;;;;0.00;0.00;;;;;;;19.52;100.00;101587.06;5112736;28;20032;-44
2023/09/09 02:52:29;;;;;;;0.00;0.00;;;;;;;19.50;100.00;101587.28;5108118;28;20028;-46
2023/09/09 02:54:55;;;;;;;0.00;0.00;;;;;;;19.48;100.00;101586.69;5093336;28;20103;-46
2023/09/09 02:57:20;;;;;;;0.00;0.00;;;;;;;19.46;100.00;101582.53;5103958;28;20114;-47
2023/09/09 02:59:46;;;;;;;0.00;0.00;;;;;;;19.42;100.00;101584.84;5102381;28;20142;-46
2023/09/09 03:02:11;;;;;;;0.00;0.00;;;;;;;19.38;100.00;101591.81;5093241;28;20028;-46
2023/09/09 03:04:36;;;;;;;0.00;0.00;;;;;;;19.33;100.00;101585.34;5099813;28;20027;-47
2023/09/09 03:07:02;;;;;;;0.00;0.00;;;;;;;19.31;100.00;101588.28;5107338;28;20161;-46
2023/09/09 03:09:29;;;;;;;0.00;0.00;;;;;;;19.28;100.00;101578.66;5111402;28;20103;-48
2023/09/09 03:11:56;;;;;;;0.00;0.00;;;;;;;19.28;100.00;101595.03;5112399;28;20038;-47
2023/09/09 03:14:21;;;;;;;0.00;0.00;;;;;;;19.27;100.00;101593.38;5100271;28;20363;-47
2023/09/09 03:16:47;;;;;;;0.00;0.00;;;;;;;19.27;100.00;101590.66;5113287;28;20474;-45
2023/09/09 03:19:12;;;;;;;0.00;0.00;;;;;;;19.27;100.00;101579.72;5123489;27;20381;-47
2023/09/09 03:21:38;;;;;;;0.00;0.00;;;;;;;19.29;100.00;101593.97;5122070;27;20024;-47
2023/09/09 03:24:03;;;;;;;0.00;0.00;;;;;;;19.31;100.00;101588.28;5094684;28;20101;-48
2023/09/09 03:26:32;;;;;;;0.00;0.00;;;;;;;19.29;100.00;101588.50;5092271;28;20461;-46
2023/09/09 03:28:58;;;;;;;0.00;0.00;;;;;;;19.28;100.00;101589.56;5100892;28;20490;-46
2023/09/09 03:31:24;;;;;;;0.00;0.00;;;;;;;19.26;100.00;101588.94;5108361;28;20039;-47
2023/09/09 03:33:49;;;;;;;0.00;0.00;;;;;;;19.27;100.00;101590.66;5091759;28;20023;-45
2023/09/09 03:36:14;;;;;;;0.00;0.00;;;;;;;19.26;100.00;101588.13;5093311;28;20684;-47
2023/09/09 03:38:40;;;;;;;0.00;0.00;;;;;;;19.25;100.00;101589.19;5093263;28;20055;-47
2023/09/09 03:41:06;;;;;;;0.00;0.00;;;;;;;19.23;100.00;101588.56;5109292;28;20127;-47
2023/09/09 03:43:34;;;;;;;0.00;0.00;;;;;;;19.22;100.00;101586.88;5114051;27;20542;-46
2023/09/09 03:46:00;;;;;;;0.00;0.00;;;;;;;19.20;100.00;101589.03;5113912;28;20039;-48
2023/09/09 03:48:25;;;;;;;0.00;0.00;;;;;;;19.18;100.00;101580.22;5113807;28;20470;-45
2023/09/09 03:50:51;;;;;;;0.00;0.00;;;;;;;19.10;100.00;101586.78;5113409;28;20063;-46
2023/09/09 03:53:16;;;;;;;0.00;0.00;;;;;;;19.07;100.00;101598.97;5105437;28;20386;-47
2023/09/09 03:55:41;;;;;;;0.00;0.00;;;;;;;19.03;100.00;101605.91;5095621;28;20028;-48
2023/09/09 03:58:07;;;;;;;0.00;0.00;;;;;;;19.01;100.00;101602.56;5108447;28;20035;-46
2023/09/09 04:00:33;;;;;;;0.00;0.00;;;;;;;19.02;100.00;101604.22;5098987;28;20390;-46
2023/09/09 04:02:58;;;;;;;0.00;0.00;;;;;;;19.02;100.00;101604.22;5103014;28;20030;-45
2023/09/09 04:05:24;;;;;;;0.00;0.00;;;;;;;19.02;100.00;101593.31;5096777;28;20323;-46
2023/09/09 04:07:50;;;;;;;0.00;0.00;;;;;;;19.06;100.00;101599.16;5093580;28;20406;-49
2023/09/09 04:10:16;;;;;;;0.00;0.00;;;;;;;19.05;100.00;101603.78;5092870;28;20043;-49
2023/09/09 04:12:41;;;;;;;0.00;0.00;;;;;;;19.04;100.00;101607.59;5094205;28;20030;-47
2023/09/09 04:15:07;;;;;;;0.00;0.00;;;;;;;19.05;100.00;101606.53;5093279;28;20031;-46
2023/09/09 04:17:33;;;;;;;0.00;0.00;;;;;;;19.04;100.00;101602.13;5093795;28;20067;-49
2023/09/09 04:19:58;;;;;;;0.00;0.00;;;;;;;19.04;100.00;101606.75;5090261;28;20104;-51
2023/09/09 04:22:25;;;;;;;0.00;0.00;;;;;;;19.01;100.00;101608.03;5103047;28;20366;-47
2023/09/09 04:24:53;;;;;;;0.00;0.00;;;;;;;18.99;100.00;101610.13;5107492;28;20104;-51
2023/09/09 04:27:19;;;;;;;0.00;0.00;;;;;;;19.01;100.00;101616.22;5098601;28;20058;-47
2023/09/09 04:29:44;;;;;;;0.00;0.00;;;;;;;18.99;100.00;101615.59;5098912;28;20028;-51
2023/09/09 04:32:10;;;;;;;0.00;0.00;;;;;;;18.99;100.00;101621.03;5098199;28;20518;-48
2023/09/09 04:34:35;;;;;;;0.00;0.00;;;;;;;18.98;100.00;101616.63;5098660;28;20032;-45
2023/09/09 04:37:02;;;;;;;0.00;0.00;;;;;;;19.01;100.00;101618.94;5105923;28;20034;-46
2023/09/09 04:39:27;;;;;;;0.00;0.00;;;;;;;18.99;100.00;101621.03;5108308;28;20490;-44
2023/09/09 04:41:52;;;;;;;0.00;0.00;;;;;;;19.01;100.00;101624.41;5107713;28;20076;-45
2023/09/09 04:44:18;;;;;;;0.00;0.00;;;;;;;19.01;100.00;101618.09;5090395;28;20437;-48
2023/09/09 04:46:43;;;;;;;0.00;0.00;;;;;;;18.99;100.00;101615.59;5079175;28;20091;-49
2023/09/09 04:49:09;;;;;;;0.00;0.00;;;;;;;18.95;100.00;101621.69;5093903;28;20031;-46
2023/09/09 04:51:34;;;;;;;0.00;0.00;;;;;;;18.90;100.00;101619.63;5105539;28;20108;-47
2023/09/09 04:53:59;;;;;;;0.00;0.00;;;;;;;18.87;100.00;101617.31;5104716;28;20036;-47
2023/09/09 04:56:24;;;;;;;0.00;0.00;;;;;;;18.85;100.00;101623.03;5104844;28;20134;-48
2023/09/09 04:58:50;;;;;;;0.00;0.00;;;;;;;18.82;100.00;101626.16;5103533;28;20116;-46
2023/09/09 05:01:15;;;;;;;0.00;0.00;;;;;;;18.82;100.00;101633.50;5103461;28;20015;-47
2023/09/09 05:03:41;;;;;;;0.00;0.00;;;;;;;18.82;100.00;101634.34;5100793;28;20024;-45
2023/09/09 05:06:07;;;;;;;0.00;0.00;;;;;;;18.82;100.00;101630.78;5100932;28;20027;-46
2023/09/09 05:08:32;;;;;;;0.00;0.00;;;;;;;18.83;100.00;101632.47;5102689;28;20060;-48
2023/09/09 05:10:57;;;;;;;0.00;0.00;;;;;;;18.83;100.00;101624.28;5093224;28;20024;-46
2023/09/09 05:13:23;;;;;;;0.00;0.00;;;;;;;18.84;100.00;101634.13;5098671;28;20024;-47
2023/09/09 05:15:48;;;;;;;0.00;0.00;;;;;;;18.83;100.00;101637.94;5090451;28;20093;-47
2023/09/09 05:18:13;;;;;;;0.00;0.00;;;;;;;18.82;100.00;101634.34;5104647;28;20028;-47
2023/09/09 05:20:39;;;;;;;0.00;0.00;;;;;;;18.84;100.00;101631.41;5104073;28;20028;-45
2023/09/09 05:23:04;;;;;;;0.00;0.00;;;;;;;18.85;100.00;101624.88;5090096;28;20443;-45
2023/09/09 05:25:29;;;;;;;0.00;0.00;;;;;;;18.87;100.00;101628.25;5098767;28;20067;-49
2023/09/09 05:27:55;;;;;;;0.00;0.00;;;;;;;18.92;100.00;101628.41;5087418;28;20028;-50
2023/09/09 05:30:20;;;;;;;0.00;0.00;;;;;;;18.94;100.00;101629.03;5103488;28;20030;-47
2023/09/09 05:32:45;;;;;;;0.00;0.00;;;;;;;18.97;100.00;101628.59;5088693;28;20024;-49
2023/09/09 05:35:11;;;;;;;0.00;0.00;;;;;;;18.99;100.00;101626.50;5092781;28;20043;-49
2023/09/09 05:37:37;;;;;;;0.00;0.00;;;;;;;19.02;100.00;101620.59;5105426;28;20031;-47
2023/09/09 05:40:03;;;;;;;0.00;0.00;;;;;;;19.08;100.00;101629.78;5100035;28;20020;-48
2023/09/09 05:42:28;;;;;;;0.00;0.00;;;;;;;19.12;100.00;101633.78;5089150;28;20486;-50
2023/09/09 05:44:53;;;;;;;0.00;0.00;;;;;;;19.22;100.00;101625.94;5093673;28;20042;-45
2023/09/09 05:47:19;;;;;;;0.00;0.00;;;;;;;19.46;100.00;101631.66;5102250;28;20511;-50
2023/09/09 05:49:44;;;;;;;0.00;0.00;;;;;;;19.74;100.00;101623.03;5095346;28;20020;-46
2023/09/09 05:52:11;;;;;;;0.00;0.00;;;;;;;20.05;100.00;101615.81;5099416;28;20055;-46
2023/09/09 05:54:37;;;;;;;0.00;0.00;;;;;;;20.21;100.00;101609.75;5094908;28;20110;-46
2023/09/09 05:57:02;;;;;;;0.00;0.00;;;;;;;20.25;100.00;101601.91;5095867;28;20456;-48
2023/09/09 05:59:27;;;;;;;0.00;0.00;;;;;;;20.29;100.00;101603.13;5099402;28;20044;-45
2023/09/09 06:01:53;;;;;;;0.00;0.00;;;;;;;20.27;100.00;101603.34;5099066;28;20035;-46
2023/09/09 06:04:18;;;;;;;0.00;0.00;;;;;;;20.35;100.00;101604.94;5098567;28;20056;-47
2023/09/09 06:06:44;;;;;;;0.00;0.00;;;;;;;20.45;100.00;101607.16;5098488;28;20439;-45
2023/09/09 06:09:10;;;;;;;0.00;0.00;;;;;;;20.47;100.00;101621.44;5098495;28;20600;-47
2023/09/09 06:11:35;;;;;;;0.00;0.00;;;;;;;20.51;100.00;101617.16;5095730;28;20139;-48
2023/09/09 06:14:00;;;;;;;0.00;0.00;;;;;;;20.53;100.00;101618.59;5099002;28;20043;-48
2023/09/09 06:16:26;;;;;;;0.00;0.00;;;;;;;20.56;100.00;101622.81;5100079;28;20035;-47
2023/09/09 06:18:51;;;;;;;0.00;0.00;;;;;;;20.56;100.00;101623.69;5099833;28;20046;-47
2023/09/09 06:21:17;;;;;;;0.00;0.00;;;;;;;20.57;100.00;101621.78;5101666;28;20503;-44
2023/09/09 06:23:42;;;;;;;0.00;0.00;;;;;;;20.64;100.00;101627.97;5101698;28;20442;-46
2023/09/09 06:26:07;;;;;;;0.00;0.00;;;;;;;20.70;100.00;101620.78;5102577;28;20114;-46
2023/09/09 06:28:33;;;;;;;0.00;0.00;;;;;;;20.77;100.00;101627.81;5102185;28;20457;-47
2023/09/09 06:30:59;;;;;;;0.00;0.00;;;;;;;20.83;100.00;101626.91;5102321;28;20532;-46
2023/09/09 06:33:24;;;;;;;0.00;0.00;;;;;;;20.92;100.00;101632.03;5107885;28;20031;-46
2023/09/09 06:35:50;;;;;;;0.00;0.00;;;;;;;20.99;100.00;101630.06;5106156;28;20052;-46
2023/09/09 06:38:16;;;;;;;0.00;0.00;;;;;;;21.02;100.00;101632.31;5101638;28;20493;-47
2023/09/09 06:40:45;;;;;;;0.00;0.00;;;;;;;21.10;100.00;101642.94;5097010;28;20032;-46
2023/09/09 06:43:12;;;;;;;0.00;0.00;;;;;;;21.22;100.00;101651.19;5092256;28;20035;-46
2023/09/09 06:45:37;;;;;;;0.00;0.00;;;;;;;21.35;100.00;101650.16;5092323;28;20028;-46
2023/09/09 06:48:05;;;;;;;0.00;0.00;;;;;;;21.48;100.00;101644.50;5092113;28;20501;-46
2023/09/09 06:50:31;;;;;;;0.00;0.00;;;;;;;21.82;100.00;101650.25;5092590;28;20471;-49
2023/09/09 06:52:56;;;;;;;0.00;0.00;;;;;;;22.51;100.00;101654.06;5103408;28;20050;-48
2023/09/09 06:55:22;;;;;;;0.00;0.00;;;;;;;23.36;100.00;101649.69;5102459;28;20095;-47
2023/09/09 06:57:47;;;;;;;0.00;0.00;;;;;;;24.15;100.00;101623.19;5126227;27;20031;-46
2023/09/09 07:00:13;;;;;;;0.00;0.00;;;;;;;24.95;100.00;101611.53;5115041;27;20055;-48
2023/09/09 07:02:40;;;;;;;0.00;0.00;;;;;;;25.66;100.00;101612.47;5099785;28;20111;-46
2023/09/09 07:05:06;;;;;;;0.00;0.00;;;;;;;26.25;100.00;101604.00;5105125;28;20028;-47
2023/09/09 07:07:32;;;;;;;0.00;0.00;;;;;;;26.69;100.00;101606.41;5109637;28;20060;-46
2023/09/09 07:09:57;;;;;;;0.00;0.00;;;;;;;27.17;100.00;101604.31;5092783;28;20024;-48
2023/09/09 07:12:22;;;;;;;0.00;0.00;;;;;;;27.67;100.00;101599.88;5092731;28;20066;-46
2023/09/09 07:14:48;;;;;;;0.00;0.00;;;;;;;27.98;100.00;101602.63;5093464;28;20236;-48
2023/09/09 07:17:13;;;;;;;0.00;0.00;;;;;;;28.08;100.00;101604.56;5092360;28;20107;-47
2023/09/09 07:19:39;;;;;;;0.00;0.00;;;;;;;28.16;100.00;101615.88;5094153;28;20106;-47
2023/09/09 07:22:05;;;;;;;0.00;0.00;;;;;;;28.51;100.00;101619.63;5112643;28;20035;-49
2023/09/09 07:24:30;;;;;;;0.00;0.00;;;;;;;28.83;100.00;101610.03;5112075;28;20023;-47
2023/09/09 07:26:58;;;;;;;0.00;0.00;;;;;;;29.09;100.00;101614.31;5113466;27;20023;-47
2023/09/09 07:29:23;;;;;;;0.00;0.00;;;;;;;29.37;100.00;101606.38;5112025;28;20027;-47
2023/09/09 07:31:48;;;;;;;0.00;0.00;;;;;;;29.57;100.00;101607.28;5112701;28;20048;-47
2023/09/09 07:34:14;;;;;;;0.00;0.00;;;;;;;29.77;100.00;101611.84;5113614;27;20023;-48
2023/09/09 07:36:39;;;;;;;0.00;0.00;;;;;;;30.05;100.00;101610.19;5113670;28;20442;-46
2023/09/09 07:39:04;;;;;;;0.00;0.00;;;;;;;30.20;100.00;101609.97;5113699;28;20024;-47
2023/09/09 07:41:30;;;;;;;0.00;0.00;;;;;;;30.41;100.00;101616.13;5113889;28;20027;-45
2023/09/09 07:43:55;;;;;;;0.00;0.00;;;;;;;30.63;100.00;101619.19;5113721;28;20023;-47
2023/09/09 07:46:20;;;;;;;0.00;0.00;;;;;;;31.01;100.00;101618.41;5104675;28;20150;-50
2023/09/09 07:48:46;;;;;;;0.00;0.00;;;;;;;31.18;100.00;101610.34;5095787;28;20024;-47
2023/09/09 07:51:11;;;;;;;0.00;0.00;;;;;;;31.35;100.00;101615.34;5091502;28;20031;-47
2023/09/09 07:53:36;;;;;;;0.00;0.00;;;;;;;31.34;97.67;101624.81;5092115;28;20020;-49
2023/09/09 07:56:02;;;;;;;0.00;0.00;;;;;;;31.61;98.26;101617.72;5091948;28;20065;-48
2023/09/09 07:58:28;;;;;;;0.00;0.00;;;;;;;31.78;98.31;101620.75;5092151;28;20024;-47
2023/09/09 08:01:04;;;;;;;0.00;0.00;;;;;;;32.25;96.13;101620.69;5092035;28;20074;-45
2023/09/09 08:03:29;;;;;;;0.00;0.00;;;;;;;32.38;92.71;101619.84;5091942;28;20115;-48
2023/09/09 08:05:56;;;;;;;0.00;0.00;;;;;;;32.03;89.63;101613.06;5091769;28;20123;-48
2023/09/09 08:08:21;;;;;;;0.00;0.00;;;;;;;31.99;91.34;101617.59;5091885;28;20549;-49
2023/09/09 08:10:48;;;;;;;0.00;0.00;;;;;;;32.24;90.12;101619.06;5090652;28;20103;-47
2023/09/09 08:13:13;;;;;;;0.00;0.00;;;;;;;33.04;86.12;101617.59;5101160;28;20107;-47
2023/09/09 08:15:39;;;;;;;0.00;0.00;;;;;;;33.38;85.59;101619.00;5110416;28;20062;-45
2023/09/09 08:18:04;;;;;;;0.00;0.00;;;;;;;33.78;78.73;101619.09;5111884;27;20028;-47
2023/09/09 08:20:29;;;;;;;0.00;0.00;;;;;;;33.78;79.44;101619.94;5112005;28;20023;-46
2023/09/09 08:22:55;;;;;;;0.00;0.00;;;;;;;34.29;75.57;101626.91;5112124;28;20027;-47
2023/09/09 08:25:20;;;;;;;0.00;0.00;;;;;;;33.61;78.63;101633.78;5112382;28;20103;-45
2023/09/09 08:27:45;;;;;;;0.00;0.00;;;;;;;32.93;79.89;101633.72;5112346;28;20031;-45
2023/09/09 08:30:11;;;;;;;0.00;0.00;;;;;;;33.00;80.06;101631.31;5111735;28;20015;-46
2023/09/09 08:32:37;;;;;;;0.00;0.00;;;;;;;32.88;78.38;101631.03;5111800;28;20028;-46
2023/09/09 08:35:03;;;;;;;0.00;0.00;;;;;;;33.12;77.33;101635.53;5111899;28;20098;-47
2023/09/09 08:37:28;;;;;;;0.00;0.00;;;;;;;34.07;73.61;101632.56;5111930;28;20462;-46
2023/09/09 08:39:55;;;;;;;0.00;0.00;;;;;;;33.26;72.90;101641.91;5111440;28;20103;-45
2023/09/09 08:42:58;;;;;;;0.00;0.00;;;;;;;33.77;75.69;101634.22;5111469;28;20073;-47
2023/09/09 08:45:58;;;;;;;0.00;0.00;;;;;;;33.24;76.02;101635.81;5111559;28;20031;-47
2023/09/09 08:48:24;;;;;;;0.00;0.00;;;;;;;33.44;73.09;101638.09;5111482;28;20019;-44
2023/09/09 08:50:52;;;;;;;0.00;0.00;;;;;;;33.88;76.64;101636.38;5110871;28;20023;-47
2023/09/09 08:53:18;;;;;;;0.00;0.00;;;;;;;34.29;75.59;101634.47;5110404;28;20027;-45
2023/09/09 08:55:44;;;;;;;0.00;0.00;;;;;;;34.68;69.21;101642.00;5110395;28;20084;-45
2023/09/09 08:58:09;;;;;;;0.00;0.00;;;;;;;34.92;71.27;101641.50;5111382;28;20110;-45
2023/09/09 09:00:36;;;;;;;0.00;0.00;;;;;;;34.91;67.08;101650.22;5110746;28;20040;-46
2023/09/09 09:03:03;;;;;;;0.00;0.00;;;;;;;34.31;67.55;101644.16;5111294;28;20063;-46
2023/09/09 09:05:30;;;;;;;0.00;0.00;;;;;;;34.34;69.88;101647.44;5111417;28;20566;-44
2023/09/09 09:07:55;;;;;;;0.00;0.00;;;;;;;34.42;73.25;101644.69;5109980;28;20024;-46
2023/09/09 09:10:21;;;;;;;0.00;0.00;;;;;;;34.79;71.60;101652.84;5111186;28;20431;-48
2023/09/09 09:12:47;;;;;;;0.00;0.00;;;;;;;35.71;66.74;101647.09;5111547;28;20068;-44
2023/09/09 09:15:13;;;;;;;;;;;;;;;35.38;66.20;101650.41;5112526;28;20015;-46
2023/09/09 09:17:40;;;;;;;;;;;;;;;34.64;68.22;101643.78;5111377;28;19991;-46
2023/09/09 09:20:09;;;;;;;0.00;0.00;;;;;;;34.58;65.85;101652.66;5111456;28;20320;-44
2023/09/09 09:22:37;;;;;;;0.00;0.00;;;;;;;34.50;70.73;101657.06;5112365;28;20028;-44
2023/09/09 09:25:03;;;;;;;0.00;0.00;;;;;;;35.08;65.92;101661.47;5110366;28;20027;-44
2023/09/09 09:27:30;;;;;;;0.00;0.00;;;;;;;35.23;66.07;101659.31;5111162;28;20073;-47
2023/09/09 09:29:56;;;;;;;0.00;0.00;;;;;;;33.94;66.45;101650.22;5110896;28;20016;-47
2023/09/09 09:32:21;;;;;;;0.00;0.00;;;;;;;33.90;68.29;101652.03;5111487;28;20039;-45
2023/09/09 09:34:49;;;;;;;0.00;0.00;;;;;;;33.62;69.41;101649.38;5111721;28;20027;-47
2023/09/09 09:37:15;;;;;;;0.00;0.00;;;;;;;33.21;71.67;101661.56;5111512;28;20051;-45
2023/09/09 09:39:41;;;;;;;0.00;0.00;;;;;;;32.95;75.46;101653.75;5110315;28;20016;-46
2023/09/09 09:42:10;;;;;;;0.00;0.00;;;;;;;32.68;73.15;101653.84;5110588;28;20156;-44
2023/09/09 09:44:35;;;;;;;0.00;0.00;;;;;;;32.16;75.96;101656.81;5111108;28;20313;-45
2023/09/09 09:47:08;;;;;;;0.00;0.00;;;;;;;32.28;78.03;101647.94;5101056;28;20028;-46
2023/09/09 09:49:45;;;;;;;0.00;0.00;;;;;;;31.39;77.95;101646.22;5098000;28;20044;-44
2023/09/09 09:52:24;;;;;;;0.00;0.00;;;;;;;30.81;79.41;101641.78;5093610;28;20038;-44
2023/09/09 09:54:51;;;;;;;0.00;0.00;;;;;;;30.40;81.57;101642.28;5099711;28;20047;-45
2023/09/09 09:57:17;;;;;;;;;;;;;;;30.66;83.67;101651.09;5106779;28;20036;-43
2023/09/09 09:59:42;;;;;;;0.00;0.00;;;;;;;30.24;81.97;101638.84;5108691;28;19923;-45
2023/09/09 10:02:09;;;;;;;0.00;0.00;;;;;;;30.37;85.29;101635.34;5107200;28;20054;-47
2023/09/09 10:04:41;;;;;;;0.00;0.00;;;;;;;30.36;85.78;101632.84;5112961;28;20031;-46
2023/09/09 10:07:10;;;;;;;0.00;0.00;;;;;;;30.12;86.09;101630.06;5099186;28;20539;-46
2023/09/09 10:09:54;;;;;;;0.00;0.00;;;;;;;29.89;86.17;101637.28;5111316;28;20246;-46
2023/09/09 10:12:28;;;;;;;0.00;0.00;;;;;;;29.79;87.09;101632.66;5099540;28;20047;-46
2023/09/09 10:14:55;;;;;;;0.00;0.00;;;;;;;29.68;87.23;101631.09;5092019;28;20024;-45
2023/09/09 10:17:21;;;;;;;0.00;0.00;;;;;;;29.51;87.22;101635.06;5091526;28;20607;-44
2023/09/09 10:19:49;;;;;;;0.00;0.00;;;;;;;29.61;89.14;101638.88;5096194;28;20035;-45
2023/09/09 10:22:14;;;;;;;0.00;0.00;;;;;;;29.71;88.47;101641.59;5089355;28;20054;-45
2023/09/09 10:24:40;;;;;;;0.00;0.00;;;;;;;29.77;87.47;101643.19;5092098;28;20024;-46
2023/09/09 10:27:06;;;;;;;0.00;0.00;;;;;;;29.65;87.33;101638.06;5092567;28;20080;-47
2023/09/09 10:29:32;;;;;;;0.00;0.00;;;;;;;29.78;86.17;101642.09;5090637;28;20040;-46
2023/09/09 10:32:02;;;;;;;0.00;0.00;;;;;;;29.67;88.13;101633.03;5092780;28;20085;-46
2023/09/09 10:34:29;;;;;;;0.00;0.00;;;;;;;29.67;88.78;101634.97;5091188;28;20039;-46
2023/09/09 10:36:54;;;;;;;0.00;0.00;;;;;;;29.52;89.40;101633.97;5090164;28;20036;-45
2023/09/09 10:39:22;;;;;;;0.00;0.00;;;;;;;29.40;89.64;101627.97;5095269;28;20024;-45
2023/09/09 10:41:48;;;;;;;0.00;0.00;;;;;;;29.37;88.85;101628.53;5096740;28;20030;-46
2023/09/09 10:44:15;;;;;;;0.00;0.00;;;;;;;29.44;88.35;101626.28;5099509;28;20585;-47
2023/09/09 10:46:41;;;;;;;0.00;0.00;;;;;;;29.46;90.59;101618.47;5094605;28;20047;-48
2023/09/09 10:49:07;;;;;;;0.00;0.00;;;;;;;29.63;88.10;101626.38;5090673;28;20472;-48
2023/09/09 10:51:44;;;;;;;0.00;0.00;;;;;;;29.77;88.19;101623.78;5101511;28;20028;-47
2023/09/09 10:54:09;;;;;;;0.00;0.00;;;;;;;29.84;87.18;101629.81;5101293;28;20458;-47
2023/09/09 10:56:45;;;;;;;0.00;0.00;;;;;;;30.00;88.27;101622.16;5101336;28;20036;-46
2023/09/09 10:59:21;;;;;;;0.00;0.00;;;;;;;30.01;86.65;101623.81;5095510;27;20417;-46
2023/09/09 11:01:48;;;;;;;0.00;0.00;;;;;;;30.42;86.43;101628.91;5094032;28;20477;-46
2023/09/09 11:04:21;;;;;;;0.00;0.00;;;;;;;30.58;85.37;101621.22;5111150;28;20023;-46
2023/09/09 11:07:05;;;;;;;0.00;0.00;;;;;;;30.51;85.88;101626.28;5110839;28;20477;-47
2023/09/09 11:09:30;;;;;;;0.00;0.00;;;;;;;30.85;85.69;101626.13;5111128;28;20193;-48
2023/09/09 11:11:56;;;;;;;0.00;0.00;;;;;;;31.57;81.71;101620.31;5111349;28;20031;-48
2023/09/09 11:14:21;;;;;;;0.00;0.00;;;;;;;32.28;81.01;101629.28;5094564;28;20051;-46
2023/09/09 11:16:53;;;;;;;0.00;0.00;;;;;;;32.35;78.88;101634.41;5098337;28;20611;-49